This is the latest recevied weather packets stored in our database for station/object DM3FAM-13. If no packets are shown the sender has not sent any weather packets the latest 1 day(s).
| Time | Temp. | Humidity | Pressure | Rain* | Wind** | Luminosity | Snow |
|---|---|---|---|---|---|---|---|
| 1777973430 | 14.44° C | 83% | 1009.3 hPa | 0 mm | 0 m/s | 122 W/m² | - |
| 1777972830 | 14.44° C | 81% | 1009.4 hPa | 0 mm | 0.45 m/s, 222° | 146 W/m² | - |
| 1777972230 | 14.44° C | 83% | 1009.4 hPa | 0 mm | 0.45 m/s, 212° | 137 W/m² | - |
| 1777971631 | 14.44° C | 82% | 1009.5 hPa | 0 mm | 0.45 m/s, 194° | 151 W/m² | - |
| 1777971031 | 14.44° C | 81% | 1009.6 hPa | 0 mm | 0 m/s | 155 W/m² | - |
| 1777970430 | 13.89° C | 81% | 1009.7 hPa | 0 mm | 0.45 m/s, 180° | 165 W/m² | - |
| 1777969831 | 13.89° C | 81% | 1009.8 hPa | 0 mm | 0.89 m/s, 199° | 147 W/m² | - |
| 1777969231 | 13.89° C | 80% | 1009.7 hPa | 0 mm | 0 m/s | 109 W/m² | - |
| 1777968631 | 13.89° C | 80% | 1009.8 hPa | 0 mm | 0.45 m/s, 227° | 107 W/m² | - |
| 1777968030 | 13.89° C | 80% | 1009.9 hPa | 0 mm | 0 m/s | 120 W/m² | - |
| 1777967430 | 13.33° C | 81% | 1009.9 hPa | 0 mm | 0 m/s | 145 W/m² | - |
| 1777966830 | 13.33° C | 81% | 1010 hPa | 0 mm | 0 m/s | 123 W/m² | - |
| 1777965030 | 12.22° C | 88% | 1010.2 hPa | 0 mm | 0 m/s | 118 W/m² | - |
| 1777964431 | 11.67° C | 90% | 1010.3 hPa | 0 mm | 0 m/s | 48 W/m² | - |
| 1777963831 | 12.22° C | 88% | 1010.2 hPa | 0 mm | 0 m/s | 36 W/m² | - |
| 1777959030 | 11.11° C | 95% | 1010.2 hPa | 0 mm | 0.45 m/s, 37° | 22 W/m² | - |
| 1777953030 | 9.44° C | 96% | 1010.2 hPa | 0 mm | 0 m/s | 0 W/m² | - |
| 1777951830 | 9.44° C | 96% | 1010.5 hPa | 0 mm | 0 m/s | 0 W/m² | - |
| 1777951230 | 9.44° C | 96% | 1010.5 hPa | 0 mm | 0 m/s | 0 W/m² | - |
| 1777949431 | 9.44° C | 95% | 1010.6 hPa | 0 mm | 0.45 m/s, 38° | 0 W/m² | - |
| 1777948830 | 9.44° C | 96% | 1010.6 hPa | 0 mm | 0.45 m/s, 42° | 0 W/m² | - |
| 1777946431 | 9.44° C | 96% | 1011 hPa | 0 mm | 0.45 m/s, 34° | 0 W/m² | - |
| 1777944631 | 9.44° C | 96% | 1011.4 hPa | 0 mm | 0 m/s | 0 W/m² | - |
| 1777944031 | 9.44° C | 95% | 1011.5 hPa | 0 mm | 0.45 m/s, 42° | 0 W/m² | - |
| 1777943430 | 10° C | 96% | 1011.6 hPa | 0 mm | 0 m/s | 0 W/m² | - |
* Rain latest hour (hover to see other rain measurements)
** Current wind speed in m/s (hover to see current wind gust speed)